createdAt,value
2022-11-28T00:00:41.388Z,16.98
2022-11-28T00:02:41.570Z,17.98
2022-11-28T00:03:41.464Z,18.42
2022-11-28T00:04:41.680Z,17.91
2022-11-28T00:05:45.659Z,18.43
2022-11-28T00:06:41.395Z,15.63
2022-11-28T00:07:41.534Z,16.40
2022-11-28T00:08:41.379Z,16.61
2022-11-28T00:09:41.420Z,16.95
2022-11-28T00:10:41.378Z,17.71
2022-11-28T00:11:41.499Z,18.64
2022-11-28T00:12:41.464Z,18.46
2022-11-28T00:13:41.447Z,17.56
2022-11-28T00:14:41.696Z,16.94
2022-11-28T00:17:41.402Z,17.71
2022-11-28T00:18:41.465Z,17.51
2022-11-28T00:19:41.435Z,17.20
2022-11-28T00:20:41.445Z,17.53
2022-11-28T00:21:41.415Z,17.34
2022-11-28T00:22:41.426Z,17.20
2022-11-28T00:23:41.438Z,17.84
2022-11-28T00:24:41.688Z,16.61
2022-11-28T00:25:41.418Z,17.14
2022-11-28T00:27:41.465Z,17.18
2022-11-28T00:28:41.449Z,17.32
2022-11-28T00:29:41.529Z,18.14
2022-11-28T00:30:41.483Z,15.53
2022-11-28T00:31:41.530Z,17.10
2022-11-28T00:32:41.466Z,16.69
2022-11-28T00:33:41.478Z,17.12
2022-11-28T00:34:41.817Z,17.00
2022-11-28T00:35:41.483Z,16.04
2022-11-28T00:36:41.468Z,17.78
2022-11-28T00:37:41.529Z,17.37
2022-11-28T00:39:41.481Z,16.92
2022-11-28T00:40:41.489Z,17.68
2022-11-28T00:43:41.457Z,17.23
2022-11-28T00:44:41.892Z,16.77
2022-11-28T00:46:41.513Z,16.90
2022-11-28T00:47:41.567Z,17.56
2022-11-28T00:48:41.515Z,17.64
2022-11-28T00:49:41.541Z,17.84
2022-11-28T00:50:41.550Z,17.34
2022-11-28T00:51:41.490Z,18.24
2022-11-28T00:52:41.550Z,16.84
2022-11-28T00:54:41.967Z,17.25
2022-11-28T00:55:41.561Z,17.56
2022-11-28T00:57:41.519Z,16.85
2022-11-28T01:00:41.651Z,18.50
2022-11-28T01:01:41.635Z,17.59
2022-11-28T01:03:41.529Z,16.22
2022-11-28T01:04:41.743Z,17.38
2022-11-28T01:05:41.599Z,16.21
2022-11-28T01:06:41.547Z,16.48
2022-11-28T01:07:41.596Z,17.58
2022-11-28T01:08:41.541Z,16.19
2022-11-28T01:09:41.580Z,16.87
2022-11-28T01:12:41.603Z,16.92
2022-11-28T01:14:41.826Z,16.80
2022-11-28T01:15:41.589Z,17.11
2022-11-28T01:17:41.619Z,17.29
2022-11-28T01:18:41.561Z,16.69
2022-11-28T01:19:41.614Z,18.24
2022-11-28T01:22:41.588Z,16.91
2022-11-28T01:23:41.600Z,18.18
2022-11-28T01:24:41.770Z,16.97
2022-11-28T01:25:41.601Z,17.20
2022-11-28T01:26:41.564Z,17.72
2022-11-28T01:27:41.600Z,16.64
2022-11-28T01:28:41.597Z,17.31
2022-11-28T01:29:41.593Z,16.50
2022-11-28T01:30:41.669Z,17.26
2022-11-28T01:31:41.646Z,16.99
2022-11-28T01:32:41.628Z,17.08
2022-11-28T01:33:41.642Z,16.18
2022-11-28T01:34:41.786Z,17.82
2022-11-28T01:35:41.655Z,17.41
2022-11-28T01:36:41.590Z,16.40
2022-11-28T01:37:41.633Z,17.04
2022-11-28T01:38:41.658Z,16.16
2022-11-28T01:39:41.624Z,17.20
2022-11-28T01:40:41.683Z,16.80
2022-11-28T01:41:41.627Z,17.79
2022-11-28T01:42:41.662Z,17.81
2022-11-28T01:44:41.894Z,15.91
2022-11-28T01:45:41.661Z,17.64
2022-11-28T01:46:41.712Z,17.34
2022-11-28T01:47:41.626Z,17.54
2022-11-28T01:48:41.691Z,17.08
2022-11-28T01:49:41.635Z,15.73
2022-11-28T01:50:41.710Z,16.71
2022-11-28T01:51:41.673Z,17.39
2022-11-28T01:52:41.659Z,16.60
2022-11-28T01:54:41.903Z,16.02
2022-11-28T01:55:41.644Z,17.05
2022-11-28T01:56:41.660Z,17.39
2022-11-28T01:57:41.638Z,17.45
2022-11-28T01:59:41.679Z,17.97
2022-11-28T02:01:41.764Z,17.64
2022-11-28T02:02:41.684Z,17.42
2022-11-28T02:03:41.731Z,17.94
2022-11-28T02:04:42.043Z,17.44
2022-11-28T02:06:41.740Z,16.02
2022-11-28T02:07:41.767Z,17.48
2022-11-28T02:08:41.759Z,16.26
2022-11-28T02:09:41.712Z,17.82
2022-11-28T02:10:41.715Z,17.18
2022-11-28T02:11:41.710Z,17.28
2022-11-28T02:12:41.698Z,16.64
2022-11-28T02:13:41.732Z,16.72
2022-11-28T02:14:42.094Z,16.22
2022-11-28T02:16:41.788Z,17.55
2022-11-28T02:18:43.949Z,17.52
2022-11-28T02:20:41.722Z,16.38
2022-11-28T02:21:41.761Z,16.56
2022-11-28T02:22:41.773Z,17.62
2022-11-28T02:23:41.784Z,15.51
2022-11-28T02:24:41.890Z,16.50
2022-11-28T02:25:41.721Z,16.79
2022-11-28T02:26:41.794Z,17.24
2022-11-28T02:27:41.733Z,17.85
2022-11-28T02:30:41.772Z,17.20
2022-11-28T02:32:41.759Z,16.07
2022-11-28T02:35:41.778Z,16.07
2022-11-28T02:36:41.761Z,17.36
2022-11-28T02:37:41.781Z,16.14
2022-11-28T02:38:41.792Z,16.99
2022-11-28T02:39:41.808Z,17.16
2022-11-28T02:42:41.760Z,17.29
2022-11-28T02:43:41.805Z,17.18
2022-11-28T02:46:41.795Z,16.64
2022-11-28T02:47:41.838Z,16.53
2022-11-28T02:48:41.763Z,16.07
2022-11-28T02:49:41.845Z,15.97
2022-11-28T02:50:41.799Z,17.49
2022-11-28T02:52:41.836Z,17.99
2022-11-28T02:53:41.806Z,18.21
2022-11-28T02:54:42.287Z,17.09
2022-11-28T02:55:41.786Z,17.53
2022-11-28T02:56:41.779Z,18.25
2022-11-28T02:57:41.849Z,17.86
2022-11-28T02:58:41.832Z,17.76
2022-11-28T02:59:41.803Z,17.94
2022-11-28T03:00:41.851Z,18.10
2022-11-28T03:01:41.862Z,18.34
2022-11-28T03:04:42.004Z,19.28
2022-11-28T03:05:41.869Z,18.74
2022-11-28T03:06:41.839Z,19.24
2022-11-28T03:07:41.928Z,18.60
2022-11-28T03:08:41.854Z,18.94
2022-11-28T03:09:41.814Z,17.61
2022-11-28T03:11:41.856Z,18.67
2022-11-28T03:12:41.888Z,18.53
2022-11-28T03:13:41.878Z,18.40
2022-11-28T03:15:41.915Z,18.72
2022-11-28T03:16:41.911Z,19.81
2022-11-28T03:17:41.878Z,18.26
2022-11-28T03:20:41.920Z,18.82
2022-11-28T03:25:41.931Z,19.96
2022-11-28T03:26:41.878Z,18.90
2022-11-28T03:27:41.902Z,17.58
2022-11-28T03:28:43.816Z,17.01
2022-11-28T03:29:41.911Z,16.92
2022-11-28T03:31:42.024Z,16.90
2022-11-28T03:32:41.882Z,17.56
2022-11-28T03:33:41.902Z,17.10
2022-11-28T03:34:42.197Z,16.52
2022-11-28T03:35:41.902Z,16.56
2022-11-28T03:36:41.919Z,16.86
2022-11-28T03:37:41.925Z,15.75
2022-11-28T03:38:41.947Z,17.91
2022-11-28T03:39:41.931Z,16.77
2022-11-28T03:40:41.964Z,17.41
2022-11-28T03:41:41.888Z,17.93
2022-11-28T03:42:41.945Z,17.57
2022-11-28T03:43:41.960Z,17.49
2022-11-28T03:44:42.096Z,16.41
2022-11-28T03:45:41.928Z,16.31
2022-11-28T03:46:41.972Z,15.81
2022-11-28T03:47:41.934Z,15.72
2022-11-28T03:48:41.994Z,16.50
2022-11-28T03:49:41.965Z,15.77
2022-11-28T03:51:41.899Z,15.79
2022-11-28T03:52:41.919Z,15.88
2022-11-28T03:53:41.982Z,14.97
2022-11-28T03:54:42.190Z,16.16
2022-11-28T03:56:41.919Z,16.47
2022-11-28T03:57:41.970Z,16.51
2022-11-28T03:59:41.977Z,16.54
2022-11-28T04:01:41.995Z,14.96
2022-11-28T04:02:42.042Z,15.84
2022-11-28T04:03:41.998Z,15.23
2022-11-28T04:05:41.982Z,15.45
2022-11-28T04:06:41.944Z,15.19
2022-11-28T04:07:42.050Z,16.15
2022-11-28T04:09:41.994Z,16.35
2022-11-28T04:10:42.020Z,16.34
2022-11-28T04:11:41.997Z,15.06
2022-11-28T04:12:42.021Z,16.12
2022-11-28T04:13:42.051Z,16.48
2022-11-28T04:17:41.970Z,15.10
2022-11-28T04:18:42.072Z,15.68
2022-11-28T04:19:42.064Z,15.97
2022-11-28T04:20:42.065Z,15.53
2022-11-28T04:21:42.006Z,15.30
2022-11-28T04:23:42.062Z,15.36
2022-11-28T04:24:42.438Z,15.72
2022-11-28T04:26:42.007Z,15.01
2022-11-28T04:27:42.013Z,15.65
2022-11-28T04:28:42.085Z,17.09
2022-11-28T04:29:42.035Z,15.71
2022-11-28T04:30:42.056Z,14.88
2022-11-28T04:31:42.077Z,15.61
2022-11-28T04:32:42.073Z,16.27
2022-11-28T04:33:42.090Z,15.43
2022-11-28T04:34:42.194Z,16.27
2022-11-28T04:36:42.089Z,16.46
2022-11-28T04:37:42.074Z,15.27
2022-11-28T04:40:42.073Z,14.83
2022-11-28T04:41:42.101Z,14.61
2022-11-28T04:42:42.084Z,14.63
2022-11-28T04:45:42.174Z,16.58
2022-11-28T04:46:42.113Z,15.54
2022-11-28T04:47:42.079Z,15.46
2022-11-28T04:49:42.082Z,15.75
2022-11-28T04:50:42.076Z,16.19
2022-11-28T04:51:42.094Z,16.39
2022-11-28T04:52:42.129Z,16.20
2022-11-28T04:53:42.076Z,15.74
2022-11-28T04:54:42.420Z,14.95
2022-11-28T04:55:42.066Z,15.64
2022-11-28T04:56:42.066Z,16.57
2022-11-28T04:57:42.111Z,15.50
2022-11-28T04:58:42.115Z,15.42
2022-11-28T04:59:42.110Z,15.23
2022-11-28T05:00:42.185Z,15.41
2022-11-28T05:01:42.150Z,16.54
2022-11-28T05:02:42.163Z,16.12
2022-11-28T05:03:42.978Z,15.66
2022-11-28T05:04:42.389Z,16.58
2022-11-28T05:05:42.103Z,15.96
2022-11-28T05:06:42.204Z,15.63
2022-11-28T05:07:42.256Z,17.35
2022-11-28T05:09:42.099Z,15.92
2022-11-28T05:10:42.136Z,16.04
2022-11-28T05:11:42.134Z,16.05
2022-11-28T05:12:42.169Z,16.60
2022-11-28T05:13:42.108Z,15.33
2022-11-28T05:14:42.509Z,17.01
2022-11-28T05:15:42.152Z,14.98
2022-11-28T05:16:42.187Z,15.00
2022-11-28T05:18:42.146Z,16.62
2022-11-28T05:20:42.159Z,16.19
2022-11-28T05:21:42.147Z,16.16
2022-11-28T05:22:42.163Z,14.85
2022-11-28T05:26:42.176Z,16.17
2022-11-28T05:27:42.154Z,16.49
2022-11-28T05:28:42.195Z,16.46
2022-11-28T05:30:42.211Z,14.72
2022-11-28T05:31:42.260Z,14.98
2022-11-28T05:32:42.215Z,15.57
2022-11-28T05:34:42.604Z,15.06
2022-11-28T05:36:42.215Z,15.34
2022-11-28T05:37:42.215Z,15.55
2022-11-28T05:38:42.238Z,15.70
2022-11-28T05:39:42.542Z,14.46
2022-11-28T05:40:42.249Z,14.21
2022-11-28T05:41:42.231Z,14.14
2022-11-28T05:44:42.207Z,15.40
2022-11-28T05:45:42.297Z,14.42
2022-11-28T05:47:42.252Z,15.68
2022-11-28T05:49:42.462Z,15.23
2022-11-28T05:51:42.279Z,15.10
2022-11-28T05:54:42.215Z,15.50
2022-11-28T05:56:42.652Z,15.64
2022-11-28T05:57:42.260Z,16.45
2022-11-28T05:58:42.259Z,15.34
2022-11-28T05:59:42.576Z,14.74
2022-11-28T06:00:42.280Z,16.01
2022-11-28T06:01:42.379Z,15.24
2022-11-28T06:04:42.365Z,16.03
2022-11-28T06:05:43.719Z,14.91
2022-11-28T06:07:42.353Z,15.33
2022-11-28T06:08:42.251Z,14.53
2022-11-28T06:09:42.794Z,14.85
2022-11-28T06:10:42.283Z,14.36
2022-11-28T06:11:42.246Z,15.98
2022-11-28T06:12:42.299Z,14.70
2022-11-28T06:13:42.251Z,14.82
2022-11-28T06:14:42.286Z,13.87
2022-11-28T06:15:42.314Z,13.67
2022-11-28T06:17:42.302Z,14.18
2022-11-28T06:19:42.721Z,15.07
2022-11-28T06:20:42.281Z,15.02
2022-11-28T06:21:42.275Z,14.70
2022-11-28T06:24:42.324Z,15.76
2022-11-28T06:25:42.309Z,14.52
2022-11-28T06:26:42.289Z,14.77
2022-11-28T06:27:42.366Z,16.15
2022-11-28T06:28:42.337Z,13.97
2022-11-28T06:29:42.644Z,15.65
2022-11-28T06:30:42.347Z,14.98
2022-11-28T06:31:42.408Z,16.14
2022-11-28T06:32:42.332Z,15.27
2022-11-28T06:33:42.290Z,15.79
2022-11-28T06:34:42.380Z,15.66
2022-11-28T06:35:42.306Z,15.52
2022-11-28T06:36:42.325Z,16.35
2022-11-28T06:37:42.348Z,16.88
2022-11-28T06:38:42.340Z,16.48
2022-11-28T06:39:42.677Z,18.71
2022-11-28T06:40:42.342Z,19.26
2022-11-28T06:42:42.419Z,18.70
2022-11-28T06:43:42.360Z,17.37
2022-11-28T06:44:42.395Z,16.85
2022-11-28T06:45:42.369Z,17.23
2022-11-28T06:46:42.342Z,18.27
2022-11-28T06:47:42.361Z,17.05
2022-11-28T06:48:42.341Z,14.82
2022-11-28T06:49:42.649Z,15.48
2022-11-28T06:50:42.345Z,14.62
2022-11-28T06:51:42.379Z,16.35
2022-11-28T06:53:42.360Z,16.07
2022-11-28T06:54:42.350Z,14.92
2022-11-28T06:55:42.434Z,16.24
2022-11-28T06:56:42.360Z,16.49
2022-11-28T06:57:42.440Z,16.03
2022-11-28T06:58:42.362Z,16.67
2022-11-28T06:59:42.806Z,17.60
2022-11-28T07:00:42.422Z,15.89
2022-11-28T07:01:42.529Z,16.15
2022-11-28T07:02:42.619Z,16.67
2022-11-28T07:03:42.433Z,15.24
2022-11-28T07:04:42.374Z,16.00
2022-11-28T07:05:42.452Z,15.75
2022-11-28T07:06:42.389Z,17.11
2022-11-28T07:09:42.697Z,16.14
2022-11-28T07:10:42.457Z,16.58
2022-11-28T07:11:42.386Z,16.36
2022-11-28T07:12:42.431Z,16.66
2022-11-28T07:14:42.430Z,15.84
2022-11-28T07:15:42.430Z,16.59
2022-11-28T07:16:42.481Z,15.62
2022-11-28T07:17:42.487Z,15.77
2022-11-28T07:18:42.446Z,17.01
2022-11-28T07:20:42.468Z,16.23
2022-11-28T07:21:42.416Z,16.15
2022-11-28T07:22:42.433Z,15.26
2022-11-28T07:23:42.459Z,16.41
2022-11-28T07:24:42.459Z,16.36
2022-11-28T07:26:42.454Z,15.64
2022-11-28T07:28:42.444Z,15.81
2022-11-28T07:29:42.632Z,16.02
2022-11-28T07:30:42.470Z,15.75
2022-11-28T07:32:42.531Z,17.29
2022-11-28T07:33:42.436Z,17.24
2022-11-28T07:34:44.643Z,16.52
2022-11-28T07:35:42.515Z,15.26
2022-11-28T07:36:42.510Z,14.93
2022-11-28T07:37:42.479Z,15.13
2022-11-28T07:38:42.519Z,14.92
2022-11-28T07:39:42.747Z,16.39
2022-11-28T07:40:42.506Z,16.04
2022-11-28T07:41:42.510Z,16.73
2022-11-28T07:42:42.528Z,16.24
2022-11-28T07:43:42.535Z,16.57
2022-11-28T07:44:42.470Z,17.27
2022-11-28T07:45:59.938Z,16.89
2022-11-28T07:46:42.601Z,16.57
2022-11-28T07:48:42.523Z,16.48
2022-11-28T07:49:42.648Z,17.57
2022-11-28T07:50:43.661Z,16.53
2022-11-28T07:51:42.507Z,16.43
2022-11-28T07:52:42.528Z,16.35
2022-11-28T07:53:42.533Z,16.98
2022-11-28T07:54:42.499Z,16.38
2022-11-28T07:55:42.544Z,16.76
2022-11-28T07:57:11.919Z,16.49
2022-11-28T07:57:42.546Z,17.38
2022-11-28T07:58:42.543Z,16.89
2022-11-28T07:59:42.930Z,15.85
2022-11-28T08:00:42.555Z,17.74
2022-11-28T08:01:42.645Z,18.04
2022-11-28T08:02:42.552Z,17.23
2022-11-28T08:03:42.563Z,16.81
2022-11-28T08:04:47.765Z,18.07
2022-11-28T08:05:42.522Z,17.80
2022-11-28T08:06:42.557Z,17.89
2022-11-28T08:07:42.620Z,16.62
2022-11-28T08:08:42.581Z,18.02
2022-11-28T08:09:42.724Z,17.34
2022-11-28T08:10:42.569Z,16.32
2022-11-28T08:11:42.576Z,16.58
2022-11-28T08:12:42.603Z,17.08
2022-11-28T08:13:42.577Z,16.75
2022-11-28T08:14:42.910Z,16.48
2022-11-28T08:15:42.585Z,16.69
2022-11-28T08:16:42.689Z,16.58
2022-11-28T08:18:42.560Z,17.33
2022-11-28T08:19:42.596Z,17.09
2022-11-28T08:20:42.556Z,16.76
2022-11-28T08:21:42.611Z,16.59
2022-11-28T08:22:42.611Z,17.30
2022-11-28T08:23:42.609Z,17.79
2022-11-28T08:24:42.768Z,17.53
2022-11-28T08:26:42.615Z,17.17
2022-11-28T08:27:42.646Z,17.58
2022-11-28T08:28:42.636Z,18.49
2022-11-28T08:29:43.071Z,18.69
2022-11-28T08:30:42.700Z,18.61
2022-11-28T08:31:42.605Z,16.73
2022-11-28T08:32:42.640Z,16.52
2022-11-28T08:33:42.630Z,16.92
2022-11-28T08:34:42.635Z,18.18
2022-11-28T08:35:42.584Z,18.55
2022-11-28T08:36:42.635Z,17.34
2022-11-28T08:37:42.663Z,17.20
2022-11-28T08:38:47.042Z,16.92
2022-11-28T08:39:42.826Z,17.10
2022-11-28T08:40:42.606Z,17.01
2022-11-28T08:41:42.652Z,15.30
2022-11-28T08:42:42.646Z,16.18
2022-11-28T08:44:42.676Z,15.81
2022-11-28T08:45:42.777Z,15.70
2022-11-28T08:46:42.657Z,14.92
2022-11-28T08:47:42.714Z,16.17
2022-11-28T08:48:42.658Z,16.13
2022-11-28T08:50:46.689Z,16.66
2022-11-28T08:51:42.644Z,17.34
2022-11-28T08:52:42.672Z,16.36
2022-11-28T08:53:46.062Z,16.83
2022-11-28T08:54:42.962Z,17.13
2022-11-28T08:55:42.682Z,17.38
2022-11-28T08:56:42.644Z,15.77
2022-11-28T08:57:42.711Z,17.00
2022-11-28T08:58:42.665Z,17.16
2022-11-28T08:59:43.089Z,16.75
2022-11-28T09:00:42.722Z,17.30
2022-11-28T09:01:42.716Z,18.29
2022-11-28T09:02:42.750Z,17.07
2022-11-28T09:03:42.780Z,16.90
2022-11-28T09:04:42.714Z,16.85
2022-11-28T09:05:42.662Z,17.67
2022-11-28T09:06:42.665Z,17.42
2022-11-28T09:07:42.768Z,16.96
2022-11-28T09:08:42.733Z,16.86
2022-11-28T09:09:42.681Z,16.48
2022-11-28T09:10:42.716Z,16.53
2022-11-28T09:11:42.725Z,16.35
2022-11-28T09:12:42.727Z,16.08
2022-11-28T09:13:42.694Z,17.53
2022-11-28T09:14:42.687Z,16.20
2022-11-28T09:15:42.775Z,15.92
2022-11-28T09:16:42.872Z,17.38
2022-11-28T09:17:42.690Z,17.36
2022-11-28T09:18:42.731Z,16.99
2022-11-28T09:19:42.931Z,18.15
2022-11-28T09:20:42.732Z,16.72
2022-11-28T09:21:42.703Z,15.91
2022-11-28T09:22:42.729Z,16.86
2022-11-28T09:23:42.781Z,15.73
2022-11-28T09:24:42.724Z,16.08
2022-11-28T09:25:42.756Z,16.74
2022-11-28T09:26:42.731Z,17.96
2022-11-28T09:27:42.761Z,17.86
2022-11-28T09:28:42.788Z,16.93
2022-11-28T09:29:42.899Z,16.84
2022-11-28T09:30:42.836Z,16.09
2022-11-28T09:31:47.099Z,16.24
2022-11-28T09:33:42.793Z,15.93
2022-11-28T09:34:42.743Z,17.32
2022-11-28T09:35:42.818Z,16.94
2022-11-28T09:36:42.746Z,16.05
2022-11-28T09:37:42.748Z,16.51
2022-11-28T09:38:42.783Z,16.51
2022-11-28T09:40:04.892Z,15.43
2022-11-28T09:40:42.795Z,15.98
2022-11-28T09:41:42.797Z,15.95
2022-11-28T09:42:42.873Z,15.88
2022-11-28T09:43:42.869Z,15.78
2022-11-28T09:44:42.774Z,16.65
2022-11-28T09:45:42.829Z,16.42
2022-11-28T09:46:42.839Z,16.14
2022-11-28T09:47:42.823Z,17.27
2022-11-28T09:48:42.812Z,15.88
2022-11-28T09:49:43.307Z,16.44
2022-11-28T09:51:42.855Z,16.44
2022-11-28T09:52:42.946Z,16.88
2022-11-28T09:53:42.828Z,16.52
2022-11-28T09:54:42.783Z,16.23
2022-11-28T09:56:42.864Z,17.12
2022-11-28T09:57:42.847Z,16.51
2022-11-28T09:58:42.833Z,17.03
2022-11-28T09:59:42.939Z,16.33
2022-11-28T10:00:42.809Z,19.63
2022-11-28T10:01:42.892Z,16.03
2022-11-28T10:02:42.803Z,15.73
2022-11-28T10:03:42.901Z,15.88
2022-11-28T10:04:42.958Z,14.95
2022-11-28T10:05:42.822Z,16.19
2022-11-28T10:06:42.863Z,13.42
2022-11-28T10:07:42.925Z,15.12
2022-11-28T10:08:42.909Z,15.98
2022-11-28T10:09:43.101Z,14.86
2022-11-28T10:11:42.875Z,14.74
2022-11-28T10:12:42.873Z,14.29
2022-11-28T10:14:06.656Z,13.78
2022-11-28T10:14:42.883Z,14.92
2022-11-28T10:15:42.885Z,15.13
2022-11-28T10:16:42.978Z,15.55
2022-11-28T10:18:42.905Z,15.31
2022-11-28T10:19:54.334Z,15.59
2022-11-28T10:20:42.892Z,14.54
2022-11-28T10:21:42.917Z,14.96
2022-11-28T10:22:42.846Z,14.34
2022-11-28T10:23:42.899Z,14.91
2022-11-28T10:24:42.900Z,15.46
2022-11-28T10:25:42.906Z,14.53
2022-11-28T10:26:42.948Z,15.15
2022-11-28T10:27:42.913Z,15.82
2022-11-28T10:28:42.918Z,15.20
2022-11-28T10:29:43.129Z,15.08
2022-11-28T10:30:42.998Z,14.24
2022-11-28T10:31:42.913Z,14.39
2022-11-28T10:32:42.909Z,14.90
2022-11-28T10:35:42.896Z,15.00
2022-11-28T10:36:42.934Z,15.29
2022-11-28T10:37:42.951Z,17.11
2022-11-28T10:40:42.888Z,15.58
2022-11-28T10:41:42.926Z,14.78
2022-11-28T10:42:42.980Z,15.36
2022-11-28T10:43:42.950Z,15.17
2022-11-28T10:44:42.968Z,15.41
2022-11-28T10:45:43.063Z,14.63
2022-11-28T10:46:43.004Z,15.02
2022-11-28T10:47:42.959Z,14.48
2022-11-28T10:48:42.937Z,13.98
2022-11-28T10:49:43.331Z,14.30
2022-11-28T10:50:42.965Z,14.46
2022-11-28T10:51:42.940Z,14.40
2022-11-28T10:52:42.982Z,14.80
2022-11-28T10:53:42.976Z,14.68
2022-11-28T10:54:42.968Z,13.40
2022-11-28T10:55:42.976Z,14.56
2022-11-28T10:56:43.063Z,15.52
2022-11-28T10:57:43.021Z,21.80
2022-11-28T10:58:42.955Z,18.33
2022-11-28T10:59:43.108Z,14.89
2022-11-28T11:00:42.989Z,15.84
2022-11-28T11:01:45.960Z,16.31
2022-11-28T11:02:43.020Z,15.25
2022-11-28T11:03:42.991Z,15.07
2022-11-28T11:04:43.065Z,14.51
2022-11-28T11:05:43.028Z,15.28
2022-11-28T11:07:06.957Z,15.22
2022-11-28T11:07:43.047Z,15.30
2022-11-28T11:08:42.985Z,13.89
2022-11-28T11:09:43.277Z,13.20
2022-11-28T11:10:43.011Z,13.97
2022-11-28T11:11:42.998Z,13.21
2022-11-28T11:12:43.024Z,12.77
2022-11-28T11:13:42.990Z,12.25
2022-11-28T11:14:42.985Z,11.94
2022-11-28T11:15:43.093Z,14.15
2022-11-28T11:16:43.028Z,12.09
2022-11-28T11:17:43.005Z,12.60
2022-11-28T11:18:42.999Z,12.59
2022-11-28T11:19:43.306Z,11.21
2022-11-28T11:20:43.034Z,13.28
2022-11-28T11:21:43.043Z,12.05
2022-11-28T11:22:45.153Z,12.85
2022-11-28T11:23:43.049Z,12.18
2022-11-28T11:24:42.998Z,13.33
2022-11-28T11:25:43.108Z,12.44
2022-11-28T11:26:43.076Z,13.45
2022-11-28T11:27:43.010Z,12.65
2022-11-28T11:28:43.062Z,13.28
2022-11-28T11:29:44.915Z,14.05
2022-11-28T11:30:43.114Z,13.04
2022-11-28T11:31:43.069Z,12.14
2022-11-28T11:32:46.290Z,13.07
2022-11-28T11:33:43.070Z,12.88
2022-11-28T11:34:43.048Z,12.30
2022-11-28T11:35:43.112Z,11.77
2022-11-28T11:36:43.034Z,12.62
2022-11-28T11:37:43.065Z,12.94
2022-11-28T11:38:43.127Z,12.65
2022-11-28T11:39:43.311Z,15.22
2022-11-28T11:40:43.036Z,15.56
2022-11-28T11:42:43.105Z,14.37
2022-11-28T11:43:43.130Z,13.13
2022-11-28T11:44:43.146Z,13.50
2022-11-28T11:46:43.102Z,13.58
2022-11-28T11:47:43.138Z,12.90
2022-11-28T11:48:43.144Z,13.10
2022-11-28T11:49:43.344Z,13.95
2022-11-28T11:50:43.092Z,14.38
2022-11-28T11:52:43.127Z,14.91
2022-11-28T11:54:43.113Z,14.85
2022-11-28T11:55:43.158Z,14.97
2022-11-28T11:56:43.160Z,15.08
2022-11-28T11:57:43.093Z,14.89
2022-11-28T11:59:43.403Z,15.92
2022-11-28T12:00:43.123Z,15.57
2022-11-28T12:01:43.177Z,15.46
2022-11-28T12:02:43.295Z,16.17
2022-11-28T12:03:43.279Z,16.91
2022-11-28T12:04:46.466Z,18.06
2022-11-28T12:06:12.273Z,16.83
2022-11-28T12:07:43.228Z,20.05
2022-11-28T12:08:43.177Z,19.21
2022-11-28T12:09:43.311Z,19.48
2022-11-28T12:10:43.126Z,18.39
2022-11-28T12:11:46.920Z,19.50
2022-11-28T12:13:43.199Z,19.43
2022-11-28T12:14:43.470Z,21.31
2022-11-28T12:15:43.247Z,20.94
2022-11-28T12:16:43.320Z,20.72
2022-11-28T12:17:49.095Z,19.43
2022-11-28T12:18:43.253Z,21.58
2022-11-28T12:19:43.191Z,20.88
2022-11-28T12:20:43.196Z,20.26
2022-11-28T12:21:43.235Z,21.04
2022-11-28T12:22:43.216Z,21.77
2022-11-28T12:23:43.227Z,21.74
2022-11-28T12:25:43.194Z,22.43
2022-11-28T12:27:43.184Z,23.66
2022-11-28T12:31:43.319Z,22.46
2022-11-28T12:32:43.224Z,22.84
2022-11-28T12:33:43.232Z,20.12
2022-11-28T12:35:43.228Z,21.18
2022-11-28T12:36:43.216Z,21.00
2022-11-28T12:38:09.747Z,20.00
2022-11-28T12:38:43.238Z,20.89
2022-11-28T12:39:43.779Z,20.68
2022-11-28T12:42:43.248Z,20.85
2022-11-28T12:43:43.250Z,19.89
2022-11-28T12:44:43.307Z,20.18
2022-11-28T12:45:43.241Z,20.01
2022-11-28T12:46:43.307Z,19.75
2022-11-28T12:47:43.242Z,20.35
2022-11-28T12:49:43.665Z,20.93
2022-11-28T12:50:43.251Z,19.01
2022-11-28T12:51:43.280Z,20.06
2022-11-28T12:52:43.284Z,20.00
2022-11-28T12:53:43.262Z,19.62
2022-11-28T12:54:43.312Z,21.17
2022-11-28T12:55:43.293Z,19.49
2022-11-28T12:56:43.277Z,19.58
2022-11-28T12:57:43.277Z,18.77
2022-11-28T12:59:43.577Z,18.33
2022-11-28T13:00:43.293Z,19.12
2022-11-28T13:01:43.317Z,20.67
2022-11-28T13:02:43.428Z,19.22
2022-11-28T13:03:43.251Z,19.00
2022-11-28T13:04:43.695Z,18.56
2022-11-28T13:05:43.308Z,18.88
2022-11-28T13:06:43.299Z,19.80
2022-11-28T13:07:43.329Z,19.03
2022-11-28T13:08:48.249Z,19.31
2022-11-28T13:09:43.704Z,18.47
2022-11-28T13:10:43.319Z,18.36
2022-11-28T13:11:43.303Z,18.57
2022-11-28T13:12:43.345Z,18.53
2022-11-28T13:13:43.328Z,17.24
2022-11-28T13:14:43.756Z,18.89
2022-11-28T13:15:43.419Z,17.53
2022-11-28T13:17:43.324Z,17.38
2022-11-28T13:18:43.302Z,18.09
2022-11-28T13:19:43.293Z,17.58
2022-11-28T13:20:43.411Z,17.41
2022-11-28T13:23:43.354Z,17.80
2022-11-28T13:24:43.321Z,17.34
2022-11-28T13:25:43.391Z,17.86
2022-11-28T13:26:43.381Z,17.17
2022-11-28T13:27:43.394Z,19.06
2022-11-28T13:28:43.357Z,18.24
2022-11-28T13:29:43.389Z,18.98
2022-11-28T13:30:43.392Z,18.00
2022-11-28T13:31:43.400Z,19.68
2022-11-28T13:32:43.411Z,20.89
2022-11-28T13:34:43.434Z,19.69
2022-11-28T13:39:43.343Z,17.54
2022-11-28T13:40:43.391Z,17.96
2022-11-28T13:42:13.900Z,17.61
2022-11-28T13:43:03.338Z,17.14
2022-11-28T13:43:43.350Z,17.95
2022-11-28T13:45:43.440Z,21.04
2022-11-28T13:46:43.485Z,20.60
2022-11-28T13:49:12.774Z,19.18
2022-11-28T13:49:43.420Z,18.59
2022-11-28T13:52:43.403Z,17.79
2022-11-28T13:53:43.445Z,17.78
2022-11-28T13:55:43.451Z,18.44
2022-11-28T13:56:43.450Z,18.80
2022-11-28T13:57:43.476Z,17.71
2022-11-28T13:58:43.399Z,19.59
2022-11-28T13:59:43.431Z,19.26
2022-11-28T14:00:43.447Z,19.02
2022-11-28T14:01:43.443Z,19.24
2022-11-28T14:02:43.505Z,17.08
2022-11-28T14:03:44.161Z,17.32
2022-11-28T14:04:43.923Z,18.85
2022-11-28T14:05:43.492Z,17.02
2022-11-28T14:06:44.539Z,17.59
2022-11-28T14:07:43.509Z,17.77
2022-11-28T14:09:43.458Z,16.71
2022-11-28T14:11:43.452Z,16.71
2022-11-28T14:12:43.452Z,18.46
2022-11-28T14:14:43.928Z,17.25
2022-11-28T14:15:43.528Z,17.09
2022-11-28T14:16:48.398Z,17.71
2022-11-28T14:17:43.501Z,17.28
2022-11-28T14:18:56.973Z,17.94
2022-11-28T14:21:43.478Z,19.49
2022-11-28T14:24:43.813Z,16.85
2022-11-28T14:25:43.500Z,17.19
2022-11-28T14:26:43.471Z,16.99
2022-11-28T14:27:43.514Z,15.91
2022-11-28T14:28:43.521Z,15.14
2022-11-28T14:29:43.507Z,14.89
2022-11-28T14:30:43.504Z,14.05
2022-11-28T14:31:55.395Z,12.41
2022-11-28T14:32:43.544Z,13.53
2022-11-28T14:35:43.499Z,11.13
2022-11-28T14:36:43.529Z,12.44
2022-11-28T14:37:43.540Z,11.39
2022-11-28T14:39:43.525Z,11.91
2022-11-28T14:41:43.529Z,11.87
2022-11-28T14:42:59.975Z,12.03
2022-11-28T14:44:43.606Z,11.40
2022-11-28T14:45:43.551Z,12.92
2022-11-28T14:46:43.648Z,11.82
2022-11-28T14:47:43.562Z,11.36
2022-11-28T14:48:43.582Z,11.89
2022-11-28T14:49:43.607Z,11.11
2022-11-28T14:50:43.545Z,12.46
2022-11-28T14:51:43.553Z,12.26
2022-11-28T14:52:43.537Z,12.27
2022-11-28T14:53:43.573Z,10.41
2022-11-28T14:56:43.613Z,11.22
2022-11-28T14:57:43.530Z,11.51
2022-11-28T14:58:43.568Z,10.91
2022-11-28T15:00:43.559Z,11.41
2022-11-28T15:01:43.579Z,10.35
2022-11-28T15:02:43.647Z,9.96
2022-11-28T15:03:43.552Z,10.98
2022-11-28T15:04:43.993Z,10.92
2022-11-28T15:05:43.557Z,10.24
2022-11-28T15:07:43.649Z,9.72
2022-11-28T15:08:43.620Z,13.66
2022-11-28T15:09:43.662Z,12.57
2022-11-28T15:11:43.649Z,13.12
2022-11-28T15:12:43.631Z,13.10
2022-11-28T15:13:43.613Z,12.55
2022-11-28T15:15:43.652Z,11.88
2022-11-28T15:16:49.630Z,15.02
2022-11-28T15:17:43.628Z,17.22
2022-11-28T15:18:43.589Z,16.55
2022-11-28T15:19:43.644Z,15.66
2022-11-28T15:20:43.634Z,14.25
2022-11-28T15:24:44.011Z,11.10
2022-11-28T15:26:43.676Z,8.24
2022-11-28T15:27:43.612Z,9.21
2022-11-28T15:28:43.626Z,7.89
2022-11-28T15:29:43.646Z,7.72
2022-11-28T15:31:43.710Z,9.31
2022-11-28T15:32:43.643Z,8.83
2022-11-28T15:33:43.621Z,8.13
2022-11-28T15:34:43.966Z,8.37
2022-11-28T15:35:43.684Z,9.34
2022-11-28T15:36:43.749Z,9.31
2022-11-28T15:37:43.648Z,7.34
2022-11-28T15:38:43.682Z,7.78